Time;durP1;ratioP1;P1;durP2;ratioP2;P2;SDS_P1;SDS_P2;PMS_P1;PMS_P2;Temp;Humidity;BMP_temperature;BMP_pressure;BME280_temperature;BME280_humidity;BME280_pressure;Samples;Min_cycle;Max_cycle;Signal;HPM_P1;HPM_P2
2023/01/03 00:01:29;;;;;;;3.13;2.20;;;22.70;63.00;;;;;;5063961;28;20478;-79
2023/01/03 00:03:59;;;;;;;4.60;2.20;;;22.70;63.00;;;;;;5060338;28;20555;-80
2023/01/03 00:06:29;;;;;;;2.77;2.50;;;22.70;63.00;;;;;;5062481;28;20667;-79
2023/01/03 00:08:59;;;;;;;3.23;1.80;;;22.70;63.00;;;;;;5060363;28;20473;-79
2023/01/03 00:14:19;;;;;;;2.70;2.00;;;22.70;63.00;;;;;;5064350;28;20540;-79
2023/01/03 00:16:50;;;;;;;5.00;2.13;;;22.70;63.00;;;;;;5066750;28;20466;-79
2023/01/03 00:19:19;;;;;;;5.43;2.30;;;22.60;63.00;;;;;;5061368;28;20535;-79
2023/01/03 00:21:48;;;;;;;4.93;2.63;;;22.60;63.00;;;;;;5062651;28;20574;-80
2023/01/03 00:24:18;;;;;;;3.27;1.80;;;22.60;63.00;;;;;;5065286;28;20526;-79
2023/01/03 00:26:47;;;;;;;3.90;1.53;;;22.60;63.00;;;;;;5068834;28;20460;-80
2023/01/03 00:29:16;;;;;;;4.30;1.97;;;22.60;63.00;;;;;;5061747;28;20553;-79
2023/01/03 00:31:44;;;;;;;2.70;1.73;;;22.60;63.00;;;;;;5062144;28;20545;-78
2023/01/03 00:34:12;;;;;;;5.43;2.00;;;22.60;63.00;;;;;;5058961;28;20466;-79
2023/01/03 00:36:41;;;;;;;1.53;1.30;;;22.70;63.00;;;;;;5065162;28;20495;-79
2023/01/03 00:39:10;;;;;;;2.07;1.60;;;22.70;63.00;;;;;;5060441;28;20588;-79
2023/01/03 00:41:40;;;;;;;3.10;1.77;;;22.70;63.00;;;;;;5061334;28;20569;-81
2023/01/03 00:44:09;;;;;;;3.13;2.20;;;22.70;63.00;;;;;;5063723;28;20457;-79
2023/01/03 00:46:37;;;;;;;2.43;1.60;;;22.70;63.00;;;;;;5056838;28;20444;-80
2023/01/03 00:49:07;;;;;;;4.00;1.60;;;22.70;63.00;;;;;;5066271;28;20476;-79
2023/01/03 00:51:37;;;;;;;1.60;1.43;;;22.70;62.90;;;;;;5059534;28;20957;-79
2023/01/03 00:54:07;;;;;;;1.60;1.17;;;22.70;62.90;;;;;;5064020;28;20468;-79
2023/01/03 00:56:36;;;;;;;1.47;1.37;;;22.70;62.80;;;;;;5066281;28;20447;-80
2023/01/03 00:59:07;;;;;;;2.10;1.80;;;22.70;62.80;;;;;;5058799;28;20446;-79
2023/01/03 01:01:37;;;;;;;3.10;1.57;;;22.70;62.80;;;;;;5066666;28;20480;-79
2023/01/03 01:04:17;;;;;;;2.60;1.73;;;22.80;62.80;;;;;;5062607;28;20765;-79
2023/01/03 01:06:48;;;;;;;4.43;2.40;;;22.70;62.70;;;;;;5066411;28;20954;-78
2023/01/03 01:09:19;;;;;;;1.83;1.40;;;22.70;62.70;;;;;;5061690;28;20459;-79
2023/01/03 01:11:47;;;;;;;2.00;1.53;;;22.70;62.70;;;;;;5067160;28;20997;-79
2023/01/03 01:14:21;;;;;;;2.53;1.40;;;22.70;62.70;;;;;;5057807;28;20549;-79
2023/01/03 01:16:51;;;;;;;1.80;1.40;;;22.70;62.70;;;;;;5063976;28;20859;-79
2023/01/03 01:19:22;;;;;;;1.97;1.77;;;22.70;62.70;;;;;;5065619;28;20550;-79
2023/01/03 01:21:50;;;;;;;2.20;1.73;;;22.70;62.70;;;;;;5059930;28;20474;-79
2023/01/03 01:24:19;;;;;;;1.63;1.50;;;22.70;62.70;;;;;;5065266;28;20466;-79
2023/01/03 01:26:47;;;;;;;1.30;1.20;;;22.70;62.70;;;;;;5060006;28;20811;-79
2023/01/03 01:29:17;;;;;;;1.27;1.17;;;22.70;62.70;;;;;;5058603;28;20465;-79
2023/01/03 01:31:47;;;;;;;2.80;1.73;;;22.70;62.80;;;;;;5068645;28;20443;-79
2023/01/03 01:34:16;;;;;;;1.87;1.57;;;22.70;62.80;;;;;;5063625;28;20473;-78
2023/01/03 01:36:45;;;;;;;2.70;1.50;;;22.70;62.80;;;;;;5060743;28;20489;-79
2023/01/03 01:39:16;;;;;;;1.30;1.20;;;22.60;62.80;;;;;;5064171;28;20478;-81
2023/01/03 01:44:44;;;;;;;4.37;1.73;;;22.60;62.80;;;;;;5064699;28;20815;-79
2023/01/03 01:47:22;;;;;;;1.57;1.27;;;22.60;62.80;;;;;;5060974;28;20550;-79
2023/01/03 01:49:56;;;;;;;2.53;1.17;;;22.60;62.80;;;;;;5057976;28;20461;-79
2023/01/03 01:52:25;;;;;;;2.13;1.93;;;22.60;62.80;;;;;;5061320;28;20450;-78
2023/01/03 01:54:55;;;;;;;1.40;1.13;;;22.60;62.80;;;;;;5067301;28;20486;-81
2023/01/03 01:57:25;;;;;;;1.80;1.30;;;22.60;62.80;;;;;;5057194;28;20458;-78
2023/01/03 01:59:55;;;;;;;1.30;1.17;;;22.60;62.80;;;;;;5063087;28;20466;-80
2023/01/03 02:02:23;;;;;;;1.60;1.13;;;22.60;62.80;;;;;;5057617;28;20468;-79
2023/01/03 02:04:55;;;;;;;2.37;1.00;;;22.60;62.90;;;;;;5058237;28;20463;-79
2023/01/03 02:07:24;;;;;;;2.37;1.40;;;22.60;62.90;;;;;;5062444;28;20970;-80
2023/01/03 02:09:55;;;;;;;1.40;1.30;;;22.70;62.90;;;;;;5056440;28;20657;-81
2023/01/03 02:15:31;;;;;;;1.43;0.90;;;22.70;62.80;;;;;;5060147;28;20454;-79
2023/01/03 02:18:11;;;;;;;1.50;1.40;;;22.70;62.70;;;;;;5058511;28;20466;-79
2023/01/03 02:21:16;;;;;;;1.47;1.13;;;22.70;62.70;;;;;;5065687;28;20501;-79
2023/01/03 02:24:24;;;;;;;1.53;1.30;;;22.70;62.60;;;;;;5056762;28;20500;-79
2023/01/03 02:27:00;;;;;;;1.30;1.10;;;22.70;62.60;;;;;;5061760;28;20452;-81
2023/01/03 02:30:06;;;;;;;1.60;1.27;;;22.70;62.60;;;;;;5061431;28;20466;-79
2023/01/03 02:32:43;;;;;;;1.10;0.90;;;22.70;62.60;;;;;;5065382;28;20461;-80
2023/01/03 02:35:18;;;;;;;2.80;1.23;;;22.70;62.60;;;;;;5060617;28;20570;-79
2023/01/03 02:37:55;;;;;;;0.87;0.87;;;22.70;62.60;;;;;;5068074;28;20585;-79
2023/01/03 02:40:30;;;;;;;0.90;0.80;;;22.70;62.60;;;;;;5068716;28;20546;-79
2023/01/03 02:43:05;;;;;;;1.80;1.53;;;22.70;62.60;;;;;;5057692;28;20911;-80
2023/01/03 02:45:57;;;;;;;1.13;0.90;;;22.70;62.60;;;;;;5060093;28;20466;-79
2023/01/03 02:48:36;;;;;;;1.97;1.57;;;22.70;62.60;;;;;;5066359;28;20859;-79
2023/01/03 02:51:10;;;;;;;1.33;1.10;;;22.70;62.60;;;;;;5064702;28;20455;-79
2023/01/03 02:53:41;;;;;;;1.87;1.43;;;22.60;62.60;;;;;;5067571;28;20439;-79
2023/01/03 02:56:12;;;;;;;1.83;1.03;;;22.60;62.60;;;;;;5062553;28;20454;-79
2023/01/03 02:58:46;;;;;;;0.97;0.77;;;22.60;62.60;;;;;;5065203;28;20544;-79
2023/01/03 03:01:16;;;;;;;1.30;0.93;;;22.60;62.60;;;;;;5067016;28;20491;-78
2023/01/03 03:03:47;;;;;;;0.80;0.80;;;22.60;62.60;;;;;;5061598;28;20451;-79
2023/01/03 03:06:22;;;;;;;0.90;0.80;;;22.60;62.60;;;;;;5067725;28;20817;-79
2023/01/03 03:08:50;;;;;;;0.80;0.80;;;22.60;62.70;;;;;;5063184;28;20937;-81
2023/01/03 03:14:11;;;;;;;1.30;1.20;;;22.60;62.70;;;;;;5062227;28;20512;-79
2023/01/03 03:16:49;;;;;;;1.30;1.10;;;22.70;62.60;;;;;;5064288;28;21204;-79
2023/01/03 03:25:10;;;;;;;0.60;0.60;;;22.70;62.50;;;;;;5056938;28;20968;-78
2023/01/03 03:30:30;;;;;;;0.77;0.70;;;22.70;62.40;;;;;;5059282;28;20458;-79
2023/01/03 03:33:04;;;;;;;1.20;1.10;;;22.70;62.50;;;;;;5066131;28;20598;-79
2023/01/03 03:35:43;;;;;;;0.80;0.80;;;22.70;62.40;;;;;;5059718;28;20454;-79
2023/01/03 03:38:15;;;;;;;1.13;1.00;;;22.70;62.40;;;;;;5055745;28;20461;-79
2023/01/03 03:46:55;;;;;;;0.80;0.80;;;22.60;62.40;;;;;;5067406;28;20551;-80
2023/01/03 03:49:40;;;;;;;0.90;0.70;;;22.60;62.40;;;;;;5070042;28;20956;-79
2023/01/03 03:52:14;;;;;;;0.60;0.60;;;22.60;62.40;;;;;;5066751;28;21031;-79
2023/01/03 03:54:47;;;;;;;0.80;0.80;;;22.60;62.40;;;;;;5062651;28;20465;-79
2023/01/03 03:57:22;;;;;;;0.73;0.70;;;22.60;62.50;;;;;;5064743;28;20455;-80
2023/01/03 03:59:54;;;;;;;0.87;0.50;;;22.60;62.40;;;;;;5069363;28;20878;-79
2023/01/03 04:02:24;;;;;;;1.40;0.80;;;22.60;62.40;;;;;;5062607;28;20468;-81
2023/01/03 04:04:57;;;;;;;0.93;0.87;;;22.60;62.40;;;;;;5070291;28;20934;-82
2023/01/03 04:07:26;;;;;;;0.97;0.70;;;22.60;62.40;;;;;;5065611;28;20811;-79
2023/01/03 04:09:55;;;;;;;1.30;1.10;;;22.60;62.40;;;;;;5061479;28;20574;-81
2023/01/03 04:12:23;;;;;;;1.27;0.70;;;22.60;62.50;;;;;;5065866;28;21024;-79
2023/01/03 04:14:51;;;;;;;1.87;1.17;;;22.60;62.50;;;;;;5057579;28;20735;-78
2023/01/03 04:17:19;;;;;;;0.87;0.80;;;22.60;62.50;;;;;;5067634;28;20508;-79
2023/01/03 04:19:47;;;;;;;0.77;0.73;;;22.70;62.50;;;;;;5064236;28;20465;-79
2023/01/03 04:22:15;;;;;;;1.33;1.03;;;22.70;62.40;;;;;;5062420;28;20453;-79
2023/01/03 04:24:45;;;;;;;0.83;0.83;;;22.70;62.30;;;;;;5060040;28;21230;-79
2023/01/03 04:27:13;;;;;;;1.27;0.80;;;22.70;62.30;;;;;;5067551;28;20527;-79
2023/01/03 04:29:41;;;;;;;1.03;0.97;;;22.70;62.30;;;;;;5064507;28;20466;-80
2023/01/03 04:32:09;;;;;;;1.17;0.70;;;22.70;62.20;;;;;;5064328;28;20458;-79
2023/01/03 04:34:39;;;;;;;0.70;0.70;;;22.70;62.20;;;;;;5067991;28;20511;-80
2023/01/03 04:37:07;;;;;;;1.63;0.80;;;22.70;62.20;;;;;;5062114;28;20593;-79
2023/01/03 04:39:36;;;;;;;0.90;0.90;;;22.70;62.20;;;;;;5059818;28;20483;-79
2023/01/03 04:44:00;;;;;;;1.40;0.77;;;22.70;62.10;;;;;;5062298;28;20468;-79
2023/01/03 04:44:53;;;;;;;0.90;0.80;;;22.70;62.10;;;;;;5065991;28;20889;-79
2023/01/03 04:47:22;;;;;;;1.40;0.70;;;22.70;62.20;;;;;;5066828;28;20538;-80
2023/01/03 04:49:50;;;;;;;1.30;0.67;;;22.70;62.20;;;;;;5065549;28;20462;-79
2023/01/03 04:52:19;;;;;;;1.10;0.80;;;22.70;62.20;;;;;;5061467;28;20482;-78
2023/01/03 04:54:47;;;;;;;0.87;0.60;;;22.70;62.20;;;;;;5060157;28;20467;-79
2023/01/03 04:57:16;;;;;;;0.47;0.47;;;22.60;62.20;;;;;;5063904;28;20453;-78
2023/01/03 04:59:45;;;;;;;1.20;1.10;;;22.60;62.20;;;;;;5067792;28;20489;-79
2023/01/03 05:02:13;;;;;;;0.80;0.70;;;22.60;62.20;;;;;;5073388;28;20443;-79
2023/01/03 05:04:41;;;;;;;0.90;0.80;;;22.60;62.20;;;;;;5069204;28;20473;-79
2023/01/03 05:07:10;;;;;;;0.70;0.70;;;22.60;62.20;;;;;;5072997;28;20847;-83
2023/01/03 05:09:38;;;;;;;1.03;0.70;;;22.60;62.20;;;;;;5063412;28;20459;-79
2023/01/03 05:12:06;;;;;;;0.60;0.60;;;22.60;62.30;;;;;;5078055;28;20459;-81
2023/01/03 05:14:36;;;;;;;0.70;0.70;;;22.60;62.30;;;;;;5071007;28;20458;-79
2023/01/03 05:17:04;;;;;;;0.50;0.50;;;22.60;62.30;;;;;;5072187;28;20451;-78
2023/01/03 05:19:32;;;;;;;0.67;0.60;;;22.60;62.30;;;;;;5061974;28;20536;-78
2023/01/03 05:27:31;;;;;;;0.73;0.70;;;22.70;62.20;;;;;;5071790;28;20458;-79
2023/01/03 05:30:01;;;;;;;0.50;0.50;;;22.70;62.20;;;;;;5071904;28;20653;-79
2023/01/03 05:32:30;;;;;;;0.50;0.50;;;22.70;62.20;;;;;;5072463;28;20491;-79
2023/01/03 05:34:58;;;;;;;0.60;0.60;;;22.70;62.20;;;;;;5066475;28;20465;-80
2023/01/03 05:37:26;;;;;;;0.70;0.70;;;22.70;62.20;;;;;;5072653;28;20579;-79
2023/01/03 05:39:54;;;;;;;0.60;0.60;;;22.70;62.10;;;;;;5068598;28;20486;-79
2023/01/03 05:42:22;;;;;;;0.70;0.70;;;22.70;62.10;;;;;;5067915;28;20875;-79
2023/01/03 05:44:50;;;;;;;0.50;0.50;;;22.70;62.00;;;;;;5072151;28;20827;-79
2023/01/03 05:47:20;;;;;;;0.57;0.57;;;22.70;62.00;;;;;;5072337;28;21044;-79
2023/01/03 05:49:48;;;;;;;0.87;0.70;;;22.80;62.00;;;;;;5071377;28;20465;-79
2023/01/03 05:52:16;;;;;;;0.70;0.70;;;22.70;61.90;;;;;;5063835;28;20463;-79
2023/01/03 05:54:44;;;;;;;0.77;0.63;;;22.70;61.90;;;;;;5076795;28;20469;-79
2023/01/03 05:57:12;;;;;;;0.67;0.67;;;22.70;61.90;;;;;;5086739;28;20470;-80
2023/01/03 05:59:41;;;;;;;0.70;0.70;;;22.70;61.90;;;;;;5069568;28;20465;-79
2023/01/03 06:02:09;;;;;;;0.60;0.53;;;22.70;61.90;;;;;;5064832;28;20464;-79
2023/01/03 06:04:39;;;;;;;0.73;0.73;;;22.70;62.00;;;;;;5071669;28;20984;-79
2023/01/03 06:07:07;;;;;;;0.90;0.70;;;22.70;62.00;;;;;;5062254;28;20494;-80
2023/01/03 06:09:35;;;;;;;0.60;0.60;;;22.70;62.00;;;;;;5064556;28;20508;-79
2023/01/03 06:12:04;;;;;;;0.60;0.60;;;22.60;62.00;;;;;;5066171;28;20885;-79
2023/01/03 06:14:32;;;;;;;0.63;0.63;;;22.60;62.00;;;;;;5069135;28;20473;-79
2023/01/03 06:19:47;;;;;;;0.53;0.53;;;22.60;62.00;;;;;;5069972;28;20474;-81
2023/01/03 06:22:15;;;;;;;0.57;0.53;;;22.60;62.10;;;;;;5065401;28;20508;-80
2023/01/03 06:24:43;;;;;;;0.80;0.70;;;22.60;62.10;;;;;;5062103;28;20475;-78
2023/01/03 06:27:11;;;;;;;1.10;0.60;;;22.60;62.10;;;;;;5066536;28;20447;-79
2023/01/03 06:29:39;;;;;;;0.63;0.63;;;22.60;62.10;;;;;;5070607;28;20461;-79
2023/01/03 06:32:07;;;;;;;1.63;0.70;;;22.60;62.00;;;;;;5066638;28;20457;-79
2023/01/03 06:34:37;;;;;;;0.60;0.60;;;22.60;62.00;;;;;;5072604;28;20533;-78
2023/01/03 06:37:07;;;;;;;0.70;0.70;;;22.60;62.10;;;;;;5071151;28;20563;-79
2023/01/03 06:39:35;;;;;;;0.60;0.60;;;22.50;62.10;;;;;;5063376;28;20570;-79
2023/01/03 06:53:10;;;;;;;0.93;0.70;;;22.50;62.10;;;;;;5058458;28;20572;-81
2023/01/03 06:53:12;;;;;;;1.80;0.67;;;22.60;62.30;;;;;;5056921;28;21247;-80
2023/01/03 06:55:42;;;;;;;0.77;0.77;;;22.60;62.30;;;;;;5063807;28;20503;-81
2023/01/03 06:58:10;;;;;;;0.73;0.57;;;22.60;62.30;;;;;;5058386;28;20961;-80
2023/01/03 07:00:40;;;;;;;0.70;0.70;;;22.60;62.30;;;;;;5061185;28;20451;-79
2023/01/03 07:03:08;;;;;;;0.80;0.80;;;22.70;62.20;;;;;;5059013;28;20463;-81
2023/01/03 07:05:39;;;;;;;1.20;0.97;;;22.70;62.20;;;;;;5053186;28;20508;-80
2023/01/03 07:08:08;;;;;;;2.00;0.70;;;22.70;62.10;;;;;;5061497;28;20468;-81
2023/01/03 07:10:37;;;;;;;1.70;1.57;;;22.70;62.10;;;;;;5060452;28;20544;-81
2023/01/03 07:15:50;;;;;;;0.90;0.80;;;22.70;62.10;;;;;;5057725;28;20535;-81
2023/01/03 07:18:19;;;;;;;1.73;1.07;;;22.70;62.10;;;;;;5060698;28;20465;-81
2023/01/03 07:20:47;;;;;;;0.83;0.77;;;22.70;62.10;;;;;;5065774;28;20473;-79
2023/01/03 07:23:16;;;;;;;2.60;0.77;;;22.70;62.10;;;;;;5068657;28;20458;-80
2023/01/03 07:25:44;;;;;;;1.70;1.10;;;22.60;62.10;;;;;;5060509;28;20980;-80
2023/01/03 07:28:14;;;;;;;1.07;0.97;;;22.60;62.20;;;;;;5060764;28;20451;-80
2023/01/03 07:30:44;;;;;;;1.10;0.73;;;22.60;62.20;;;;;;5058189;28;20564;-80
2023/01/03 07:33:15;;;;;;;1.87;1.00;;;22.60;62.20;;;;;;5054771;28;20562;-79
2023/01/03 07:35:43;;;;;;;2.20;1.13;;;22.60;62.20;;;;;;5058955;28;20910;-80
2023/01/03 07:38:13;;;;;;;1.30;0.80;;;22.60;62.30;;;;;;5061460;28;20816;-81
2023/01/03 07:40:42;;;;;;;3.43;0.80;;;22.60;62.30;;;;;;5061150;28;20540;-79
2023/01/03 07:45:56;;;;;;;1.23;0.83;;;22.60;62.30;;;;;;5081804;28;20752;-79
2023/01/03 07:48:25;;;;;;;2.10;1.27;;;22.60;62.30;;;;;;5072710;28;20945;-79
2023/01/03 07:50:57;;;;;;;1.10;0.83;;;22.50;62.30;;;;;;5058288;28;20468;-79
2023/01/03 07:53:26;;;;;;;1.20;0.90;;;22.50;62.30;;;;;;5057108;28;20455;-79
2023/01/03 07:56:02;;;;;;;1.40;0.90;;;22.50;62.30;;;;;;5058181;28;20458;-79
2023/01/03 07:58:38;;;;;;;2.80;0.73;;;22.50;62.30;;;;;;5062496;28;20496;-79
2023/01/03 08:01:08;;;;;;;0.90;0.90;;;22.50;62.30;;;;;;5061301;28;20465;-80
2023/01/03 08:03:37;;;;;;;2.73;1.00;;;22.50;62.30;;;;;;5085057;28;20470;-80
2023/01/03 08:06:07;;;;;;;0.80;0.60;;;22.50;62.30;;;;;;5059710;28;20557;-79
2023/01/03 08:08:35;;;;;;;1.50;1.27;;;22.50;62.30;;;;;;5068029;28;20453;-79
2023/01/03 08:13:51;;;;;;;2.50;1.17;;;22.60;62.30;;;;;;5072170;28;20481;-81
2023/01/03 08:16:20;;;;;;;1.43;0.90;;;22.60;62.30;;;;;;5070809;28;20462;-81
2023/01/03 08:18:48;;;;;;;1.43;1.00;;;22.60;62.20;;;;;;5066104;28;20476;-79
2023/01/03 08:21:16;;;;;;;1.93;1.00;;;22.60;62.10;;;;;;5062289;28;20869;-80
2023/01/03 08:23:45;;;;;;;1.30;1.20;;;22.70;62.00;;;;;;5065506;28;20465;-80
2023/01/03 08:26:16;;;;;;;1.30;1.20;;;22.70;61.90;;;;;;5062483;28;20577;-80
2023/01/03 08:28:45;;;;;;;0.90;0.83;;;22.70;61.90;;;;;;5064793;28;20461;-79
2023/01/03 08:31:16;;;;;;;1.10;1.00;;;22.70;61.80;;;;;;5066847;28;21317;-81
2023/01/03 08:33:50;;;;;;;1.23;1.03;;;22.70;61.80;;;;;;5065079;28;20519;-79
2023/01/03 08:36:19;;;;;;;4.67;1.03;;;22.70;61.70;;;;;;5072477;28;20495;-80
2023/01/03 08:38:52;;;;;;;2.37;1.10;;;22.70;61.70;;;;;;5060884;28;20496;-80
2023/01/03 08:41:26;;;;;;;3.60;1.00;;;22.70;61.70;;;;;;5062807;28;20493;-79
2023/01/03 08:43:57;;;;;;;1.27;0.90;;;22.70;61.70;;;;;;5066854;28;20448;-80
2023/01/03 08:46:25;;;;;;;1.23;0.90;;;22.60;61.70;;;;;;5066580;28;21460;-79
2023/01/03 08:48:55;;;;;;;1.50;1.40;;;22.60;61.70;;;;;;5064305;28;20469;-80
2023/01/03 08:51:25;;;;;;;2.50;1.27;;;22.60;61.70;;;;;;5063107;28;20462;-80
2023/01/03 08:53:53;;;;;;;1.80;1.30;;;22.60;61.70;;;;;;5065470;28;20448;-80
2023/01/03 08:56:23;;;;;;;1.57;1.47;;;22.60;61.70;;;;;;5058405;28;21330;-79
2023/01/03 08:58:51;;;;;;;1.37;1.27;;;22.60;61.80;;;;;;5061550;28;20458;-79
2023/01/03 09:01:20;;;;;;;1.37;1.20;;;22.60;61.70;;;;;;5062846;28;20540;-79
2023/01/03 09:03:49;;;;;;;2.73;1.50;;;22.60;61.80;;;;;;5058831;28;20486;-80
2023/01/03 09:06:17;;;;;;;1.30;1.20;;;22.60;61.80;;;;;;5059331;28;20577;-79
2023/01/03 09:08:45;;;;;;;1.47;1.20;;;22.60;61.70;;;;;;5061365;28;21023;-80
2023/01/03 09:11:15;;;;;;;2.03;1.37;;;22.60;61.70;;;;;;5058092;28;20462;-80
2023/01/03 09:13:44;;;;;;;1.33;1.17;;;22.60;61.70;;;;;;5057591;28;20488;-81
2023/01/03 09:16:15;;;;;;;1.80;1.70;;;22.60;61.70;;;;;;5059037;28;20451;-81
2023/01/03 09:18:43;;;;;;;1.33;1.20;;;22.60;61.60;;;;;;5064792;28;20449;-80
2023/01/03 09:21:11;;;;;;;1.50;1.40;;;22.60;61.60;;;;;;5065477;28;20459;-79
2023/01/03 09:23:40;;;;;;;1.37;1.27;;;22.60;61.60;;;;;;5059439;28;20462;-79
2023/01/03 09:26:08;;;;;;;2.13;1.00;;;22.60;61.60;;;;;;5056627;28;20477;-80
2023/01/03 09:28:36;;;;;;;2.07;1.30;;;22.70;61.60;;;;;;5061126;28;20556;-80
2023/01/03 09:31:05;;;;;;;2.97;1.50;;;22.70;61.60;;;;;;5055795;28;20526;-79
2023/01/03 09:33:34;;;;;;;2.30;1.30;;;22.70;61.60;;;;;;5063326;28;20925;-79
2023/01/03 09:36:02;;;;;;;1.80;0.70;;;22.70;61.60;;;;;;5068424;28;20486;-82
2023/01/03 09:38:30;;;;;;;3.27;1.27;;;22.80;61.50;;;;;;5055880;28;20577;-78
2023/01/03 09:41:01;;;;;;;2.00;1.77;;;22.80;61.40;;;;;;5078120;28;20516;-79
2023/01/03 09:43:36;;;;;;;2.53;2.20;;;22.80;61.40;;;;;;5056513;28;20528;-79
2023/01/03 09:46:05;;;;;;;2.03;1.20;;;22.80;61.30;;;;;;5063965;28;20474;-80
2023/01/03 09:48:36;;;;;;;1.23;1.13;;;22.80;61.20;;;;;;5060701;28;20536;-80
2023/01/03 10:03:42;;;;;;;1.80;1.70;;;22.90;61.20;;;;;;5053272;28;20575;-80
2023/01/03 10:05:54;;;;;;;3.10;1.43;;;22.80;61.30;;;;;;5018433;28;20494;-79
2023/01/03 10:08:34;;;;;;;2.33;1.50;;;22.80;61.40;;;;;;5053013;28;20457;-82
2023/01/03 10:11:07;;;;;;;2.10;1.90;;;22.70;61.40;;;;;;5062636;28;20548;-79
2023/01/03 10:13:51;;;;;;;1.70;1.43;;;22.70;61.40;;;;;;5062031;28;20457;-79
2023/01/03 10:16:29;;;;;;;1.70;1.60;;;22.70;61.50;;;;;;5057942;28;20470;-81
2023/01/03 10:19:34;;;;;;;3.23;1.53;;;22.70;61.50;;;;;;5056777;28;20546;-80
2023/01/03 10:22:11;;;;;;;1.60;1.50;;;22.70;61.50;;;;;;5054408;28;20446;-79
2023/01/03 10:24:45;;;;;;;2.53;1.10;;;22.70;61.60;;;;;;5057904;28;20489;-79
2023/01/03 10:27:16;;;;;;;1.47;1.37;;;22.70;61.50;;;;;;5058988;28;20557;-79
2023/01/03 10:29:46;;;;;;;2.83;1.50;;;22.70;61.50;;;;;;5061643;28;20463;-78
2023/01/03 10:32:39;;;;;;;1.40;1.30;;;22.70;61.50;;;;;;5064433;28;20451;-79
2023/01/03 10:35:20;;;;;;;1.97;1.77;;;22.70;61.60;;;;;;5065603;28;20466;-80
2023/01/03 10:37:51;;;;;;;1.63;1.33;;;22.70;61.60;;;;;;5064191;28;20992;-78
2023/01/03 10:40:19;;;;;;;3.33;2.03;;;22.70;61.60;;;;;;5060796;28;21402;-79
2023/01/03 10:42:49;;;;;;;4.17;2.00;;;22.70;62.00;;;;;;5068589;28;20459;-78
2023/01/03 10:45:19;;;;;;;12.87;3.00;;;22.80;63.20;;;;;;5068036;28;20792;-80
2023/01/03 10:47:58;;;;;;;4.10;2.53;;;22.80;64.30;;;;;;5070876;28;20953;-79
2023/01/03 10:50:29;;;;;;;13.83;2.57;;;22.80;64.00;;;;;;5062592;28;20471;-78
2023/01/03 10:53:00;;;;;;;9.07;4.10;;;22.80;64.00;;;;;;5067411;28;20460;-80
2023/01/03 10:55:28;;;;;;;8.30;2.60;;;22.90;64.00;;;;;;5066954;28;20450;-81
2023/01/03 10:58:02;;;;;;;4.07;2.10;;;22.90;64.10;;;;;;5073843;28;20473;-80
2023/01/03 11:00:32;;;;;;;7.77;3.13;;;23.00;64.30;;;;;;5075044;28;20457;-81
2023/01/03 11:03:12;;;;;;;5.53;3.03;;;23.00;64.40;;;;;;5077491;28;20450;-80
2023/01/03 11:05:44;;;;;;;8.27;2.87;;;23.10;64.30;;;;;;5079134;28;20445;-80
2023/01/03 11:08:19;;;;;;;26.67;2.70;;;23.10;64.10;;;;;;5079844;28;20584;-81
2023/01/03 11:10:58;;;;;;;6.57;3.50;;;23.10;64.10;;;;;;5068503;28;20543;-82
2023/01/03 11:13:33;;;;;;;4.60;2.03;;;23.20;64.10;;;;;;5071167;28;20463;-80
2023/01/03 11:16:12;;;;;;;9.53;3.43;;;23.20;64.10;;;;;;5083570;28;20476;-81
2023/01/03 11:18:41;;;;;;;9.67;2.93;;;23.20;64.10;;;;;;5084284;28;20775;-81
2023/01/03 11:21:15;;;;;;;7.20;3.03;;;23.20;64.10;;;;;;5075195;28;20451;-82
2023/01/03 11:23:57;;;;;;;9.60;3.20;;;23.20;64.30;;;;;;5074072;28;20524;-81
2023/01/03 11:26:41;;;;;;;7.90;3.13;;;23.30;64.10;;;;;;5062499;28;20471;-83
2023/01/03 11:29:50;;;;;;;13.20;3.67;;;23.20;64.30;;;;;;5064535;28;20554;-82
2023/01/03 11:32:28;;;;;;;15.03;4.00;;;23.30;64.30;;;;;;5028299;28;20565;-83
2023/01/03 11:35:33;;;;;;;12.40;3.80;;;23.20;64.10;;;;;;5071698;28;20482;-81
2023/01/03 11:38:16;;;;;;;17.63;4.30;;;23.20;64.10;;;;;;5077035;28;20533;-82
2023/01/03 11:40:52;;;;;;;12.77;4.13;;;23.20;64.10;;;;;;5077786;28;20464;-84
2023/01/03 11:43:33;;;;;;;19.80;4.87;;;23.20;64.10;;;;;;5067006;28;20545;-83
2023/01/03 11:46:22;;;;;;;12.17;3.63;;;23.20;64.10;;;;;;5070201;28;20805;-83
2023/01/03 11:49:09;;;;;;;14.43;4.07;;;23.20;64.10;;;;;;5075814;28;20560;-82
2023/01/03 11:51:48;;;;;;;13.37;5.30;;;23.20;64.10;;;;;;5081198;28;20454;-82
2023/01/03 11:54:37;;;;;;;12.30;4.83;;;23.10;64.10;;;;;;5069385;28;20802;-83
2023/01/03 11:57:12;;;;;;;18.37;5.60;;;23.10;64.10;;;;;;5063489;28;20549;-83
2023/01/03 11:59:55;;;;;;;10.20;4.20;;;23.10;64.00;;;;;;5060736;28;20550;-83
2023/01/03 12:02:58;;;;;;;18.50;5.03;;;23.20;63.90;;;;;;5063545;28;20993;-83
2023/01/03 12:05:46;;;;;;;22.77;4.80;;;23.20;63.90;;;;;;5058860;28;20446;-83
2023/01/03 12:08:49;;;;;;;18.97;4.23;;;23.30;63.80;;;;;;5063643;28;20547;-83
2023/01/03 12:11:33;;;;;;;10.47;3.90;;;23.30;63.50;;;;;;5064754;28;20542;-83
2023/01/03 12:14:10;;;;;;;13.00;4.40;;;23.40;63.60;;;;;;5062223;28;20450;-83
2023/01/03 12:16:42;;;;;;;10.20;3.73;;;23.50;63.30;;;;;;5063201;28;20486;-83
2023/01/03 12:19:21;;;;;;;15.93;4.10;;;23.60;63.20;;;;;;5064631;28;20450;-83
2023/01/03 12:21:52;;;;;;;14.53;4.63;;;23.70;63.20;;;;;;5060737;28;20557;-83
2023/01/03 12:24:32;;;;;;;11.50;4.37;;;23.80;63.00;;;;;;5058510;28;20974;-83
2023/01/03 12:27:09;;;;;;;14.37;3.60;;;23.80;62.90;;;;;;5057704;28;20556;-83
2023/01/03 12:29:51;;;;;;;7.90;4.17;;;23.90;62.80;;;;;;5072691;28;20458;-83
2023/01/03 12:32:27;;;;;;;19.53;4.27;;;23.90;62.60;;;;;;5064219;28;20796;-83
2023/01/03 12:35:14;;;;;;;18.57;4.10;;;23.90;62.40;;;;;;5083785;28;20452;-82
2023/01/03 12:37:45;;;;;;;17.03;3.97;;;23.90;62.30;;;;;;5070874;28;20492;-84
2023/01/03 12:40:21;;;;;;;13.57;4.00;;;23.90;62.20;;;;;;5068145;28;20555;-84
2023/01/03 12:42:59;;;;;;;11.80;4.43;;;23.90;62.20;;;;;;5075922;28;20486;-82
2023/01/03 12:45:42;;;;;;;15.53;4.60;;;23.90;62.30;;;;;;5086034;28;20951;-83
2023/01/03 12:48:23;;;;;;;15.03;4.63;;;23.80;62.30;;;;;;5074638;28;20519;-82
2023/01/03 12:50:53;;;;;;;12.90;5.10;;;23.80;62.40;;;;;;5068172;28;20531;-83
2023/01/03 12:53:26;;;;;;;13.00;4.73;;;23.70;62.50;;;;;;5066485;28;20949;-83
2023/01/03 12:56:18;;;;;;;10.87;3.83;;;23.60;62.60;;;;;;5064312;28;20502;-83
2023/01/03 12:59:00;;;;;;;12.23;3.63;;;23.50;62.70;;;;;;5065238;28;20451;-83
2023/01/03 13:01:37;;;;;;;12.23;3.50;;;23.50;62.80;;;;;;5065806;28;20501;-82
2023/01/03 13:04:11;;;;;;;9.87;3.40;;;23.50;62.90;;;;;;5062261;28;20459;-82
2023/01/03 13:06:49;;;;;;;9.60;3.50;;;23.40;63.00;;;;;;5058819;28;20451;-82
2023/01/03 13:09:23;;;;;;;8.23;2.70;;;23.40;63.00;;;;;;5062072;28;20546;-82
2023/01/03 13:11:53;;;;;;;5.83;2.93;;;23.40;63.00;;;;;;5057268;28;21312;-83
2023/01/03 13:14:25;;;;;;;9.10;3.03;;;23.30;63.00;;;;;;5063605;28;20450;-82
2023/01/03 13:16:55;;;;;;;8.90;4.00;;;23.30;63.00;;;;;;5064955;28;20459;-82
2023/01/03 13:19:52;;;;;;;11.07;3.43;;;23.30;63.00;;;;;;5078662;28;20440;-81
2023/01/03 13:22:57;;;;;;;10.27;4.53;;;23.30;63.00;;;;;;5079449;28;20913;-80
2023/01/03 13:25:38;;;;;;;7.10;3.07;;;23.30;63.00;;;;;;5059479;28;20903;-83
2023/01/03 13:28:34;;;;;;;9.13;3.33;;;23.30;63.00;;;;;;5067010;28;20481;-80
2023/01/03 13:31:35;;;;;;;11.43;3.50;;;23.40;62.90;;;;;;5071487;28;20468;-82
2023/01/03 13:34:32;;;;;;;13.17;3.83;;;23.50;62.90;;;;;;5064676;28;20469;-82
2023/01/03 13:37:19;;;;;;;10.23;3.90;;;23.60;62.90;;;;;;5071054;28;20495;-82
2023/01/03 13:40:14;;;;;;;8.23;3.30;;;23.70;62.70;;;;;;5064810;28;20474;-82
2023/01/03 13:42:42;;;;;;;13.90;3.77;;;23.80;62.60;;;;;;5076138;28;20539;-82
2023/01/03 13:45:55;;;;;;;16.20;4.63;;;23.90;62.40;;;;;;5069142;28;20790;-82
2023/01/03 13:48:40;;;;;;;10.17;3.00;;;24.00;62.20;;;;;;5064171;28;20503;-82
2023/01/03 13:51:34;;;;;;;9.43;3.27;;;24.10;62.00;;;;;;5065856;28;20452;-81
2023/01/03 13:54:23;;;;;;;14.23;2.97;;;24.20;61.80;;;;;;5081090;28;20912;-81
2023/01/03 13:57:02;;;;;;;8.33;3.23;;;24.20;61.60;;;;;;5074771;28;20474;-80
2023/01/03 13:59:35;;;;;;;7.60;3.20;;;24.30;61.40;;;;;;5068779;28;20508;-79
2023/01/03 14:02:44;;;;;;;4.83;2.57;;;24.30;61.30;;;;;;5070405;28;20457;-80
2023/01/03 14:05:32;;;;;;;9.47;2.93;;;24.40;61.30;;;;;;5039428;28;20558;-81
2023/01/03 14:08:15;;;;;;;13.00;4.20;;;24.40;61.20;;;;;;5069491;28;20475;-81
2023/01/03 14:11:20;;;;;;;16.17;4.23;;;24.40;61.10;;;;;;5068215;28;20556;-82
2023/01/03 14:13:48;;;;;;;14.53;4.80;;;24.40;61.00;;;;;;5053468;28;20588;-83
2023/01/03 14:16:23;;;;;;;11.63;4.10;;;24.40;61.00;;;;;;5061336;28;20458;-83
2023/01/03 14:19:03;;;;;;;17.07;4.17;;;24.40;61.00;;;;;;5069454;28;20550;-83
2023/01/03 14:21:42;;;;;;;16.90;5.30;;;24.40;60.90;;;;;;5076204;28;20542;-82
2023/01/03 14:24:23;;;;;;;16.70;5.47;;;24.40;60.90;;;;;;5066475;28;20485;-82